sensor_id;sensor_type;location;lat;lon;timestamp;P1;durP1;ratioP1;P2;durP2;ratioP2
15408;SDS011;7803;48.130;13.788;2022-07-18T00:00:00;2.80;;;2.60;;
15408;SDS011;7803;48.130;13.788;2022-07-18T00:03:02;3.60;;;2.95;;
15408;SDS011;7803;48.130;13.788;2022-07-18T00:06:05;2.92;;;2.63;;
15408;SDS011;7803;48.130;13.788;2022-07-18T00:09:07;3.25;;;2.63;;
15408;SDS011;7803;48.130;13.788;2022-07-18T00:12:10;3.03;;;2.72;;
15408;SDS011;7803;48.130;13.788;2022-07-18T00:15:12;3.13;;;2.83;;
15408;SDS011;7803;48.130;13.788;2022-07-18T00:18:14;3.20;;;2.58;;
15408;SDS011;7803;48.130;13.788;2022-07-18T00:21:17;3.25;;;2.95;;
15408;SDS011;7803;48.130;13.788;2022-07-18T00:24:20;3.20;;;2.90;;
15408;SDS011;7803;48.130;13.788;2022-07-18T00:27:22;3.92;;;3.25;;
15408;SDS011;7803;48.130;13.788;2022-07-18T00:30:24;3.58;;;3.28;;
15408;SDS011;7803;48.130;13.788;2022-07-18T00:33:26;3.30;;;3.00;;
15408;SDS011;7803;48.130;13.788;2022-07-18T00:36:30;3.50;;;3.20;;
15408;SDS011;7803;48.130;13.788;2022-07-18T00:39:32;3.67;;;3.33;;
15408;SDS011;7803;48.130;13.788;2022-07-18T00:42:34;4.03;;;3.13;;
15408;SDS011;7803;48.130;13.788;2022-07-18T00:45:36;3.92;;;3.50;;
15408;SDS011;7803;48.130;13.788;2022-07-18T00:48:38;3.67;;;3.38;;
15408;SDS011;7803;48.130;13.788;2022-07-18T00:51:42;4.13;;;3.72;;
15408;SDS011;7803;48.130;13.788;2022-07-18T00:54:44;4.20;;;3.80;;
15408;SDS011;7803;48.130;13.788;2022-07-18T00:57:46;3.85;;;3.47;;
15408;SDS011;7803;48.130;13.788;2022-07-18T01:00:48;4.78;;;3.95;;
15408;SDS011;7803;48.130;13.788;2022-07-18T01:04:08;5.25;;;3.85;;
15408;SDS011;7803;48.130;13.788;2022-07-18T01:07:11;4.35;;;3.85;;
15408;SDS011;7803;48.130;13.788;2022-07-18T01:10:13;3.85;;;3.55;;
15408;SDS011;7803;48.130;13.788;2022-07-18T01:13:15;3.80;;;3.47;;
15408;SDS011;7803;48.130;13.788;2022-07-18T01:16:17;4.07;;;3.67;;
15408;SDS011;7803;48.130;13.788;2022-07-18T01:19:20;4.28;;;3.88;;
15408;SDS011;7803;48.130;13.788;2022-07-18T01:22:23;4.28;;;3.88;;
15408;SDS011;7803;48.130;13.788;2022-07-18T01:25:25;4.32;;;3.45;;
15408;SDS011;7803;48.130;13.788;2022-07-18T01:28:28;3.75;;;3.45;;
15408;SDS011;7803;48.130;13.788;2022-07-18T01:31:30;4.00;;;3.53;;
15408;SDS011;7803;48.130;13.788;2022-07-18T01:34:33;3.67;;;3.38;;
15408;SDS011;7803;48.130;13.788;2022-07-18T01:37:37;3.88;;;3.58;;
15408;SDS011;7803;48.130;13.788;2022-07-18T01:40:39;4.13;;;3.72;;
15408;SDS011;7803;48.130;13.788;2022-07-18T01:43:42;4.72;;;3.55;;
15408;SDS011;7803;48.130;13.788;2022-07-18T01:46:44;4.30;;;3.90;;
15408;SDS011;7803;48.130;13.788;2022-07-18T01:49:46;4.25;;;3.85;;
15408;SDS011;7803;48.130;13.788;2022-07-18T01:52:49;3.90;;;3.60;;
15408;SDS011;7803;48.130;13.788;2022-07-18T01:55:51;4.65;;;3.70;;
15408;SDS011;7803;48.130;13.788;2022-07-18T01:58:53;4.50;;;3.95;;
15408;SDS011;7803;48.130;13.788;2022-07-18T02:01:56;5.03;;;4.20;;
15408;SDS011;7803;48.130;13.788;2022-07-18T02:04:58;4.20;;;3.80;;
15408;SDS011;7803;48.130;13.788;2022-07-18T02:08:02;4.13;;;3.70;;
15408;SDS011;7803;48.130;13.788;2022-07-18T02:11:04;4.15;;;3.80;;
15408;SDS011;7803;48.130;13.788;2022-07-18T02:14:06;4.13;;;3.72;;
15408;SDS011;7803;48.130;13.788;2022-07-18T02:17:08;3.53;;;3.22;;
15408;SDS011;7803;48.130;13.788;2022-07-18T02:20:11;4.40;;;4.00;;
15408;SDS011;7803;48.130;13.788;2022-07-18T02:23:16;4.80;;;3.88;;
15408;SDS011;7803;48.130;13.788;2022-07-18T02:26:18;4.28;;;3.83;;
15408;SDS011;7803;48.130;13.788;2022-07-18T02:29:20;5.00;;;4.10;;
15408;SDS011;7803;48.130;13.788;2022-07-18T02:32:22;4.20;;;3.80;;
15408;SDS011;7803;48.130;13.788;2022-07-18T02:35:24;3.95;;;3.65;;
15408;SDS011;7803;48.130;13.788;2022-07-18T02:38:28;4.40;;;3.97;;
15408;SDS011;7803;48.130;13.788;2022-07-18T02:41:30;4.20;;;3.80;;
15408;SDS011;7803;48.130;13.788;2022-07-18T02:44:31;3.97;;;3.53;;
15408;SDS011;7803;48.130;13.788;2022-07-18T02:47:33;3.65;;;3.35;;
15408;SDS011;7803;48.130;13.788;2022-07-18T02:50:36;4.10;;;3.70;;
15408;SDS011;7803;48.130;13.788;2022-07-18T02:53:39;3.80;;;3.50;;
15408;SDS011;7803;48.130;13.788;2022-07-18T02:56:41;4.15;;;3.72;;
15408;SDS011;7803;48.130;13.788;2022-07-18T02:59:43;3.80;;;3.50;;
15408;SDS011;7803;48.130;13.788;2022-07-18T03:02:46;4.25;;;3.70;;
15408;SDS011;7803;48.130;13.788;2022-07-18T03:05:48;3.20;;;2.90;;
15408;SDS011;7803;48.130;13.788;2022-07-18T03:08:51;4.20;;;3.80;;
15408;SDS011;7803;48.130;13.788;2022-07-18T03:11:53;3.97;;;3.67;;
15408;SDS011;7803;48.130;13.788;2022-07-18T03:14:56;3.80;;;3.50;;
15408;SDS011;7803;48.130;13.788;2022-07-18T03:17:58;4.03;;;3.63;;
15408;SDS011;7803;48.130;13.788;2022-07-18T03:21:00;3.70;;;3.40;;
15408;SDS011;7803;48.130;13.788;2022-07-18T03:24:04;4.13;;;3.70;;
15408;SDS011;7803;48.130;13.788;2022-07-18T03:27:06;4.18;;;3.78;;
15408;SDS011;7803;48.130;13.788;2022-07-18T03:30:08;4.03;;;3.42;;
15408;SDS011;7803;48.130;13.788;2022-07-18T03:33:11;4.05;;;3.63;;
15408;SDS011;7803;48.130;13.788;2022-07-18T03:36:13;3.83;;;3.53;;
15408;SDS011;7803;48.130;13.788;2022-07-18T03:39:17;4.22;;;3.83;;
15408;SDS011;7803;48.130;13.788;2022-07-18T03:42:19;4.10;;;3.58;;
15408;SDS011;7803;48.130;13.788;2022-07-18T03:45:21;3.70;;;3.33;;
15408;SDS011;7803;48.130;13.788;2022-07-18T03:48:23;3.97;;;3.40;;
15408;SDS011;7803;48.130;13.788;2022-07-18T03:51:25;3.72;;;3.33;;
15408;SDS011;7803;48.130;13.788;2022-07-18T03:54:29;3.80;;;3.47;;
15408;SDS011;7803;48.130;13.788;2022-07-18T03:57:31;3.65;;;3.28;;
15408;SDS011;7803;48.130;13.788;2022-07-18T04:00:33;4.20;;;3.70;;
15408;SDS011;7803;48.130;13.788;2022-07-18T04:03:35;3.50;;;3.20;;
15408;SDS011;7803;48.130;13.788;2022-07-18T04:06:37;3.50;;;3.20;;
15408;SDS011;7803;48.130;13.788;2022-07-18T04:09:40;3.60;;;3.30;;
15408;SDS011;7803;48.130;13.788;2022-07-18T04:12:45;4.55;;;3.70;;
15408;SDS011;7803;48.130;13.788;2022-07-18T04:15:48;3.50;;;3.20;;
15408;SDS011;7803;48.130;13.788;2022-07-18T04:18:50;4.13;;;3.50;;
15408;SDS011;7803;48.130;13.788;2022-07-18T04:21:53;3.70;;;2.97;;
15408;SDS011;7803;48.130;13.788;2022-07-18T04:24:56;3.50;;;3.20;;
15408;SDS011;7803;48.130;13.788;2022-07-18T04:27:58;3.97;;;3.10;;
15408;SDS011;7803;48.130;13.788;2022-07-18T04:31:00;3.50;;;3.20;;
15408;SDS011;7803;48.130;13.788;2022-07-18T04:34:03;3.40;;;3.10;;
15408;SDS011;7803;48.130;13.788;2022-07-18T04:37:05;3.40;;;3.10;;
15408;SDS011;7803;48.130;13.788;2022-07-18T04:40:09;3.50;;;3.20;;
15408;SDS011;7803;48.130;13.788;2022-07-18T04:43:12;3.47;;;3.17;;
15408;SDS011;7803;48.130;13.788;2022-07-18T04:46:14;3.40;;;3.10;;
15408;SDS011;7803;48.130;13.788;2022-07-18T04:49:16;3.60;;;3.30;;
15408;SDS011;7803;48.130;13.788;2022-07-18T04:52:18;3.45;;;3.15;;
15408;SDS011;7803;48.130;13.788;2022-07-18T04:55:22;3.20;;;2.90;;
15408;SDS011;7803;48.130;13.788;2022-07-18T04:58:25;3.05;;;2.75;;
15408;SDS011;7803;48.130;13.788;2022-07-18T05:01:27;3.60;;;3.30;;
15408;SDS011;7803;48.130;13.788;2022-07-18T05:04:29;3.60;;;3.30;;
15408;SDS011;7803;48.130;13.788;2022-07-18T05:07:31;3.55;;;3.25;;
15408;SDS011;7803;48.130;13.788;2022-07-18T05:10:34;3.88;;;3.47;;
15408;SDS011;7803;48.130;13.788;2022-07-18T05:13:36;4.07;;;3.20;;
15408;SDS011;7803;48.130;13.788;2022-07-18T05:16:38;3.70;;;3.40;;
15408;SDS011;7803;48.130;13.788;2022-07-18T05:19:40;3.47;;;3.17;;
15408;SDS011;7803;48.130;13.788;2022-07-18T05:22:42;4.57;;;3.78;;
15408;SDS011;7803;48.130;13.788;2022-07-18T05:25:46;3.30;;;3.00;;
15408;SDS011;7803;48.130;13.788;2022-07-18T05:28:48;3.88;;;3.47;;
15408;SDS011;7803;48.130;13.788;2022-07-18T05:31:50;3.60;;;3.30;;
15408;SDS011;7803;48.130;13.788;2022-07-18T05:34:52;3.53;;;3.22;;
15408;SDS011;7803;48.130;13.788;2022-07-18T05:37:54;3.42;;;3.13;;
15408;SDS011;7803;48.130;13.788;2022-07-18T05:40:58;3.60;;;3.30;;
15408;SDS011;7803;48.130;13.788;2022-07-18T05:44:00;3.58;;;3.28;;
15408;SDS011;7803;48.130;13.788;2022-07-18T05:47:02;4.13;;;3.63;;
15408;SDS011;7803;48.130;13.788;2022-07-18T05:50:04;3.67;;;3.38;;
15408;SDS011;7803;48.130;13.788;2022-07-18T05:53:07;3.40;;;3.10;;
15408;SDS011;7803;48.130;13.788;2022-07-18T05:56:10;3.63;;;3.30;;
15408;SDS011;7803;48.130;13.788;2022-07-18T05:59:12;3.75;;;3.38;;
15408;SDS011;7803;48.130;13.788;2022-07-18T06:02:15;4.13;;;3.45;;
15408;SDS011;7803;48.130;13.788;2022-07-18T06:05:17;3.88;;;3.00;;
15408;SDS011;7803;48.130;13.788;2022-07-18T06:08:19;3.70;;;3.30;;
15408;SDS011;7803;48.130;13.788;2022-07-18T06:11:22;3.67;;;3.00;;
15408;SDS011;7803;48.130;13.788;2022-07-18T06:14:24;3.85;;;3.30;;
15408;SDS011;7803;48.130;13.788;2022-07-18T06:17:26;4.25;;;3.45;;
15408;SDS011;7803;48.130;13.788;2022-07-18T06:20:30;3.33;;;3.03;;
15408;SDS011;7803;48.130;13.788;2022-07-18T06:23:32;3.55;;;3.25;;
15408;SDS011;7803;48.130;13.788;2022-07-18T06:26:37;3.50;;;3.20;;
15408;SDS011;7803;48.130;13.788;2022-07-18T06:29:39;3.90;;;3.33;;
15408;SDS011;7803;48.130;13.788;2022-07-18T06:32:41;3.20;;;2.90;;
15408;SDS011;7803;48.130;13.788;2022-07-18T06:35:43;3.88;;;3.45;;
15408;SDS011;7803;48.130;13.788;2022-07-18T06:38:46;3.60;;;3.03;;
15408;SDS011;7803;48.130;13.788;2022-07-18T06:41:49;3.30;;;3.00;;
15408;SDS011;7803;48.130;13.788;2022-07-18T06:44:51;3.58;;;2.90;;
15408;SDS011;7803;48.130;13.788;2022-07-18T06:47:53;2.78;;;2.58;;
15408;SDS011;7803;48.130;13.788;2022-07-18T06:50:55;5.00;;;3.20;;
15408;SDS011;7803;48.130;13.788;2022-07-18T06:53:57;3.72;;;3.30;;
15408;SDS011;7803;48.130;13.788;2022-07-18T06:57:01;3.45;;;3.15;;
15408;SDS011;7803;48.130;13.788;2022-07-18T07:00:07;3.60;;;3.30;;
15408;SDS011;7803;48.130;13.788;2022-07-18T07:03:11;3.45;;;3.13;;
15408;SDS011;7803;48.130;13.788;2022-07-18T07:06:13;3.50;;;3.20;;
15408;SDS011;7803;48.130;13.788;2022-07-18T07:09:16;3.28;;;2.97;;
15408;SDS011;7803;48.130;13.788;2022-07-18T07:12:20;3.47;;;3.17;;
15408;SDS011;7803;48.130;13.788;2022-07-18T07:15:22;4.00;;;3.03;;
15408;SDS011;7803;48.130;13.788;2022-07-18T07:18:25;3.30;;;2.95;;
15408;SDS011;7803;48.130;13.788;2022-07-18T07:21:27;3.10;;;2.90;;
15408;SDS011;7803;48.130;13.788;2022-07-18T07:24:30;3.15;;;2.95;;
15408;SDS011;7803;48.130;13.788;2022-07-18T07:27:33;3.53;;;3.22;;
15408;SDS011;7803;48.130;13.788;2022-07-18T07:30:35;3.47;;;3.17;;
15408;SDS011;7803;48.130;13.788;2022-07-18T07:33:37;3.35;;;3.05;;
15408;SDS011;7803;48.130;13.788;2022-07-18T07:36:39;3.13;;;2.88;;
15408;SDS011;7803;48.130;13.788;2022-07-18T07:39:41;3.30;;;3.08;;
15408;SDS011;7803;48.130;13.788;2022-07-18T07:42:45;3.33;;;3.03;;
15408;SDS011;7803;48.130;13.788;2022-07-18T07:45:48;3.20;;;2.90;;
15408;SDS011;7803;48.130;13.788;2022-07-18T07:48:50;2.90;;;2.60;;
15408;SDS011;7803;48.130;13.788;2022-07-18T07:51:52;3.22;;;2.92;;
15408;SDS011;7803;48.130;13.788;2022-07-18T07:54:54;3.38;;;3.08;;
15408;SDS011;7803;48.130;13.788;2022-07-18T07:57:58;3.60;;;2.97;;
15408;SDS011;7803;48.130;13.788;2022-07-18T08:01:00;3.30;;;3.00;;
15408;SDS011;7803;48.130;13.788;2022-07-18T08:04:02;3.30;;;3.00;;
15408;SDS011;7803;48.130;13.788;2022-07-18T08:07:04;2.97;;;2.65;;
15408;SDS011;7803;48.130;13.788;2022-07-18T08:10:06;2.90;;;2.70;;
15408;SDS011;7803;48.130;13.788;2022-07-18T08:13:10;3.63;;;2.70;;
15408;SDS011;7803;48.130;13.788;2022-07-18T08:16:13;3.15;;;2.70;;
15408;SDS011;7803;48.130;13.788;2022-07-18T08:19:15;3.22;;;2.92;;
15408;SDS011;7803;48.130;13.788;2022-07-18T08:22:17;3.30;;;3.00;;
15408;SDS011;7803;48.130;13.788;2022-07-18T08:25:19;3.60;;;3.30;;
15408;SDS011;7803;48.130;13.788;2022-07-18T08:28:23;3.10;;;2.80;;
15408;SDS011;7803;48.130;13.788;2022-07-18T08:31:25;3.05;;;2.75;;
15408;SDS011;7803;48.130;13.788;2022-07-18T08:34:26;3.60;;;2.97;;
15408;SDS011;7803;48.130;13.788;2022-07-18T08:37:29;3.10;;;2.90;;
15408;SDS011;7803;48.130;13.788;2022-07-18T08:40:31;4.05;;;3.22;;
15408;SDS011;7803;48.130;13.788;2022-07-18T08:43:36;3.20;;;2.90;;
15408;SDS011;7803;48.130;13.788;2022-07-18T08:46:39;2.90;;;2.65;;
15408;SDS011;7803;48.130;13.788;2022-07-18T08:49:45;2.90;;;2.70;;
15408;SDS011;7803;48.130;13.788;2022-07-18T08:52:47;3.22;;;2.92;;
15408;SDS011;7803;48.130;13.788;2022-07-18T08:55:50;3.30;;;3.00;;
15408;SDS011;7803;48.130;13.788;2022-07-18T08:58:54;3.05;;;2.75;;
15408;SDS011;7803;48.130;13.788;2022-07-18T09:01:56;2.53;;;2.33;;
15408;SDS011;7803;48.130;13.788;2022-07-18T09:04:59;4.45;;;2.55;;
15408;SDS011;7803;48.130;13.788;2022-07-18T09:08:08;3.10;;;2.72;;
15408;SDS011;7803;48.130;13.788;2022-07-18T09:11:11;3.00;;;2.70;;
15408;SDS011;7803;48.130;13.788;2022-07-18T09:14:27;2.80;;;2.60;;
15408;SDS011;7803;48.130;13.788;2022-07-18T09:17:38;3.15;;;2.85;;
15408;SDS011;7803;48.130;13.788;2022-07-18T09:20:40;2.83;;;2.60;;
15408;SDS011;7803;48.130;13.788;2022-07-18T09:23:44;2.88;;;2.67;;
15408;SDS011;7803;48.130;13.788;2022-07-18T09:26:48;2.50;;;2.30;;
15408;SDS011;7803;48.130;13.788;2022-07-18T09:33:28;3.28;;;2.80;;
15408;SDS011;7803;48.130;13.788;2022-07-18T09:36:30;2.85;;;2.60;;
15408;SDS011;7803;48.130;13.788;2022-07-18T09:39:36;2.75;;;2.55;;
15408;SDS011;7803;48.130;13.788;2022-07-18T09:42:38;2.70;;;2.50;;
15408;SDS011;7803;48.130;13.788;2022-07-18T09:45:42;3.92;;;2.75;;
15408;SDS011;7803;48.130;13.788;2022-07-18T09:48:46;2.83;;;2.50;;
15408;SDS011;7803;48.130;13.788;2022-07-18T09:52:00;3.00;;;2.70;;
15408;SDS011;7803;48.130;13.788;2022-07-18T09:55:06;2.70;;;2.50;;
15408;SDS011;7803;48.130;13.788;2022-07-18T09:58:09;3.15;;;2.80;;
15408;SDS011;7803;48.130;13.788;2022-07-18T10:01:13;3.13;;;2.60;;
15408;SDS011;7803;48.130;13.788;2022-07-18T10:04:15;2.75;;;2.50;;
15408;SDS011;7803;48.130;13.788;2022-07-18T10:07:17;3.42;;;3.00;;
15408;SDS011;7803;48.130;13.788;2022-07-18T10:10:20;2.70;;;2.50;;
15408;SDS011;7803;48.130;13.788;2022-07-18T10:13:25;2.70;;;2.50;;
15408;SDS011;7803;48.130;13.788;2022-07-18T10:16:29;3.05;;;2.40;;
15408;SDS011;7803;48.130;13.788;2022-07-18T10:19:33;2.42;;;2.22;;
15408;SDS011;7803;48.130;13.788;2022-07-18T10:22:36;2.67;;;2.30;;
15408;SDS011;7803;48.130;13.788;2022-07-18T10:25:42;2.60;;;2.40;;
15408;SDS011;7803;48.130;13.788;2022-07-18T10:32:28;2.60;;;2.40;;
15408;SDS011;7803;48.130;13.788;2022-07-18T10:39:03;2.70;;;2.50;;
15408;SDS011;7803;48.130;13.788;2022-07-18T10:45:41;2.47;;;2.28;;
15408;SDS011;7803;48.130;13.788;2022-07-18T10:48:56;2.83;;;2.42;;
15408;SDS011;7803;48.130;13.788;2022-07-18T10:51:58;4.45;;;2.60;;
15408;SDS011;7803;48.130;13.788;2022-07-18T10:58:33;2.60;;;2.40;;
15408;SDS011;7803;48.130;13.788;2022-07-18T11:01:44;2.60;;;2.40;;
15408;SDS011;7803;48.130;13.788;2022-07-18T11:04:51;2.45;;;2.25;;
15408;SDS011;7803;48.130;13.788;2022-07-18T11:11:24;3.17;;;2.33;;
15408;SDS011;7803;48.130;13.788;2022-07-18T11:18:01;2.53;;;2.30;;
15408;SDS011;7803;48.130;13.788;2022-07-18T11:21:10;3.88;;;2.33;;
15408;SDS011;7803;48.130;13.788;2022-07-18T11:24:18;3.08;;;2.75;;
15408;SDS011;7803;48.130;13.788;2022-07-18T11:27:22;2.50;;;2.28;;
15408;SDS011;7803;48.130;13.788;2022-07-18T11:30:24;3.63;;;2.38;;
15408;SDS011;7803;48.130;13.788;2022-07-18T11:33:27;2.50;;;2.30;;
15408;SDS011;7803;48.130;13.788;2022-07-18T11:36:32;2.60;;;2.40;;
15408;SDS011;7803;48.130;13.788;2022-07-18T11:39:34;3.00;;;2.40;;
15408;SDS011;7803;48.130;13.788;2022-07-18T11:42:37;2.53;;;2.33;;
15408;SDS011;7803;48.130;13.788;2022-07-18T11:45:39;2.40;;;2.20;;
15408;SDS011;7803;48.130;13.788;2022-07-18T11:48:42;2.50;;;2.20;;
15408;SDS011;7803;48.130;13.788;2022-07-18T11:51:47;2.42;;;2.22;;
15408;SDS011;7803;48.130;13.788;2022-07-18T11:54:50;2.78;;;2.40;;
15408;SDS011;7803;48.130;13.788;2022-07-18T11:57:52;2.60;;;2.40;;
15408;SDS011;7803;48.130;13.788;2022-07-18T12:00:58;2.15;;;1.95;;
15408;SDS011;7803;48.130;13.788;2022-07-18T12:04:00;2.55;;;2.08;;
15408;SDS011;7803;48.130;13.788;2022-07-18T12:10:31;2.35;;;2.15;;
15408;SDS011;7803;48.130;13.788;2022-07-18T12:13:39;2.15;;;2.00;;
15408;SDS011;7803;48.130;13.788;2022-07-18T12:16:46;2.33;;;2.10;;
15408;SDS011;7803;48.130;13.788;2022-07-18T12:19:49;3.35;;;2.10;;
15408;SDS011;7803;48.130;13.788;2022-07-18T12:23:06;2.13;;;1.92;;
15408;SDS011;7803;48.130;13.788;2022-07-18T12:26:25;2.90;;;2.10;;
15408;SDS011;7803;48.130;13.788;2022-07-18T12:29:28;3.13;;;2.28;;
15408;SDS011;7803;48.130;13.788;2022-07-18T12:32:30;2.72;;;2.17;;
15408;SDS011;7803;48.130;13.788;2022-07-18T12:35:40;3.05;;;2.30;;
15408;SDS011;7803;48.130;13.788;2022-07-18T12:38:47;2.47;;;2.10;;
15408;SDS011;7803;48.130;13.788;2022-07-18T12:42:01;2.25;;;2.05;;
15408;SDS011;7803;48.130;13.788;2022-07-18T12:45:04;2.05;;;1.92;;
15408;SDS011;7803;48.130;13.788;2022-07-18T12:48:07;2.38;;;2.10;;
15408;SDS011;7803;48.130;13.788;2022-07-18T12:51:10;2.45;;;1.90;;
15408;SDS011;7803;48.130;13.788;2022-07-18T12:54:14;2.13;;;1.90;;
15408;SDS011;7803;48.130;13.788;2022-07-18T12:57:16;2.38;;;2.15;;
15408;SDS011;7803;48.130;13.788;2022-07-18T13:00:18;2.22;;;2.03;;
15408;SDS011;7803;48.130;13.788;2022-07-18T13:03:20;2.75;;;2.15;;
15408;SDS011;7803;48.130;13.788;2022-07-18T13:06:22;2.47;;;2.10;;
15408;SDS011;7803;48.130;13.788;2022-07-18T13:09:26;2.08;;;1.80;;
15408;SDS011;7803;48.130;13.788;2022-07-18T13:12:28;2.80;;;2.10;;
15408;SDS011;7803;48.130;13.788;2022-07-18T13:15:30;2.80;;;2.40;;
15408;SDS011;7803;48.130;13.788;2022-07-18T13:18:32;2.78;;;2.00;;
15408;SDS011;7803;48.130;13.788;2022-07-18T13:21:34;2.15;;;1.95;;
15408;SDS011;7803;48.130;13.788;2022-07-18T13:24:38;2.33;;;2.08;;
15408;SDS011;7803;48.130;13.788;2022-07-18T13:27:40;2.25;;;1.83;;
15408;SDS011;7803;48.130;13.788;2022-07-18T13:30:42;2.30;;;2.10;;
15408;SDS011;7803;48.130;13.788;2022-07-18T13:33:44;1.90;;;1.80;;
15408;SDS011;7803;48.130;13.788;2022-07-18T13:36:48;2.22;;;2.03;;
15408;SDS011;7803;48.130;13.788;2022-07-18T13:39:51;2.78;;;2.13;;
15408;SDS011;7803;48.130;13.788;2022-07-18T13:42:53;2.45;;;2.00;;
15408;SDS011;7803;48.130;13.788;2022-07-18T13:45:55;3.80;;;2.45;;
15408;SDS011;7803;48.130;13.788;2022-07-18T13:48:57;2.10;;;1.90;;
15408;SDS011;7803;48.130;13.788;2022-07-18T13:51:59;1.83;;;1.73;;
15408;SDS011;7803;48.130;13.788;2022-07-18T13:55:04;1.85;;;1.75;;
15408;SDS011;7803;48.130;13.788;2022-07-18T13:58:07;2.33;;;2.05;;
15408;SDS011;7803;48.130;13.788;2022-07-18T14:01:09;2.70;;;2.20;;
15408;SDS011;7803;48.130;13.788;2022-07-18T14:04:13;2.33;;;1.92;;
15408;SDS011;7803;48.130;13.788;2022-07-18T14:07:15;2.40;;;2.20;;
15408;SDS011;7803;48.130;13.788;2022-07-18T14:10:20;2.22;;;2.03;;
15408;SDS011;7803;48.130;13.788;2022-07-18T14:13:22;2.20;;;2.00;;
15408;SDS011;7803;48.130;13.788;2022-07-18T14:16:24;2.40;;;2.20;;
15408;SDS011;7803;48.130;13.788;2022-07-18T14:19:26;2.20;;;2.00;;
15408;SDS011;7803;48.130;13.788;2022-07-18T14:22:28;2.13;;;1.90;;
15408;SDS011;7803;48.130;13.788;2022-07-18T14:25:31;2.00;;;1.90;;
15408;SDS011;7803;48.130;13.788;2022-07-18T14:28:33;2.22;;;2.03;;
15408;SDS011;7803;48.130;13.788;2022-07-18T14:31:35;2.67;;;2.10;;
15408;SDS011;7803;48.130;13.788;2022-07-18T14:34:37;2.58;;;2.28;;
15408;SDS011;7803;48.130;13.788;2022-07-18T14:37:39;2.40;;;2.10;;
15408;SDS011;7803;48.130;13.788;2022-07-18T14:40:43;3.40;;;2.13;;
15408;SDS011;7803;48.130;13.788;2022-07-18T14:43:45;2.80;;;2.55;;
15408;SDS011;7803;48.130;13.788;2022-07-18T14:46:47;1.80;;;1.70;;
15408;SDS011;7803;48.130;13.788;2022-07-18T14:49:49;1.70;;;1.60;;
15408;SDS011;7803;48.130;13.788;2022-07-18T14:52:51;2.40;;;2.17;;
15408;SDS011;7803;48.130;13.788;2022-07-18T14:55:55;2.00;;;1.80;;
15408;SDS011;7803;48.130;13.788;2022-07-18T14:58:57;2.25;;;2.05;;
15408;SDS011;7803;48.130;13.788;2022-07-18T15:01:59;2.38;;;2.05;;
15408;SDS011;7803;48.130;13.788;2022-07-18T15:05:06;1.70;;;1.60;;
15408;SDS011;7803;48.130;13.788;2022-07-18T15:08:08;2.15;;;1.98;;
15408;SDS011;7803;48.130;13.788;2022-07-18T15:11:12;2.15;;;1.75;;
15408;SDS011;7803;48.130;13.788;2022-07-18T15:14:14;1.83;;;1.73;;
15408;SDS011;7803;48.130;13.788;2022-07-18T15:17:17;2.00;;;1.80;;
15408;SDS011;7803;48.130;13.788;2022-07-18T15:20:19;2.30;;;2.10;;
15408;SDS011;7803;48.130;13.788;2022-07-18T15:23:21;1.80;;;1.70;;
15408;SDS011;7803;48.130;13.788;2022-07-18T15:26:24;2.08;;;1.85;;
15408;SDS011;7803;48.130;13.788;2022-07-18T15:29:26;1.85;;;1.75;;
15408;SDS011;7803;48.130;13.788;2022-07-18T15:32:28;1.95;;;1.75;;
15408;SDS011;7803;48.130;13.788;2022-07-18T15:35:30;2.17;;;1.92;;
15408;SDS011;7803;48.130;13.788;2022-07-18T15:38:33;2.17;;;1.75;;
15408;SDS011;7803;48.130;13.788;2022-07-18T15:41:36;2.20;;;2.00;;
15408;SDS011;7803;48.130;13.788;2022-07-18T15:44:38;1.92;;;1.80;;
15408;SDS011;7803;48.130;13.788;2022-07-18T15:47:40;2.30;;;1.80;;
15408;SDS011;7803;48.130;13.788;2022-07-18T15:50:43;2.47;;;1.90;;
15408;SDS011;7803;48.130;13.788;2022-07-18T15:53:45;2.35;;;1.60;;
15408;SDS011;7803;48.130;13.788;2022-07-18T15:56:48;2.08;;;1.88;;
15408;SDS011;7803;48.130;13.788;2022-07-18T15:59:50;1.90;;;1.80;;
15408;SDS011;7803;48.130;13.788;2022-07-18T16:02:52;2.17;;;1.80;;
15408;SDS011;7803;48.130;13.788;2022-07-18T16:05:54;2.05;;;1.70;;
15408;SDS011;7803;48.130;13.788;2022-07-18T16:08:57;2.80;;;2.20;;
15408;SDS011;7803;48.130;13.788;2022-07-18T16:12:00;1.75;;;1.65;;
15408;SDS011;7803;48.130;13.788;2022-07-18T16:15:02;1.73;;;1.63;;
15408;SDS011;7803;48.130;13.788;2022-07-18T16:18:05;1.67;;;1.58;;
15408;SDS011;7803;48.130;13.788;2022-07-18T16:21:07;2.72;;;1.70;;
15408;SDS011;7803;48.130;13.788;2022-07-18T16:24:09;1.58;;;1.48;;
15408;SDS011;7803;48.130;13.788;2022-07-18T16:27:12;1.80;;;1.70;;
15408;SDS011;7803;48.130;13.788;2022-07-18T16:30:14;1.75;;;1.60;;
15408;SDS011;7803;48.130;13.788;2022-07-18T16:33:16;2.25;;;2.05;;
15408;SDS011;7803;48.130;13.788;2022-07-18T16:36:18;2.95;;;1.77;;
15408;SDS011;7803;48.130;13.788;2022-07-18T16:39:20;1.80;;;1.70;;
15408;SDS011;7803;48.130;13.788;2022-07-18T16:42:24;1.70;;;1.60;;
15408;SDS011;7803;48.130;13.788;2022-07-18T16:45:26;1.73;;;1.63;;
15408;SDS011;7803;48.130;13.788;2022-07-18T16:48:30;1.70;;;1.60;;
15408;SDS011;7803;48.130;13.788;2022-07-18T16:51:32;1.70;;;1.60;;
15408;SDS011;7803;48.130;13.788;2022-07-18T16:54:35;1.77;;;1.67;;
15408;SDS011;7803;48.130;13.788;2022-07-18T16:57:38;1.80;;;1.67;;
15408;SDS011;7803;48.130;13.788;2022-07-18T17:00:41;2.53;;;1.80;;
15408;SDS011;7803;48.130;13.788;2022-07-18T17:03:43;1.70;;;1.60;;
15408;SDS011;7803;48.130;13.788;2022-07-18T17:06:45;2.22;;;1.60;;
15408;SDS011;7803;48.130;13.788;2022-07-18T17:09:48;1.60;;;1.50;;
15408;SDS011;7803;48.130;13.788;2022-07-18T17:12:51;1.55;;;1.45;;
15408;SDS011;7803;48.130;13.788;2022-07-18T17:15:54;2.72;;;1.55;;
15408;SDS011;7803;48.130;13.788;2022-07-18T17:18:56;1.50;;;1.40;;
15408;SDS011;7803;48.130;13.788;2022-07-18T17:21:59;1.75;;;1.50;;
15408;SDS011;7803;48.130;13.788;2022-07-18T17:25:03;1.60;;;1.50;;
15408;SDS011;7803;48.130;13.788;2022-07-18T17:28:07;1.70;;;1.60;;
15408;SDS011;7803;48.130;13.788;2022-07-18T17:31:10;1.70;;;1.60;;
15408;SDS011;7803;48.130;13.788;2022-07-18T17:34:12;1.75;;;1.65;;
15408;SDS011;7803;48.130;13.788;2022-07-18T17:37:15;1.80;;;1.70;;
15408;SDS011;7803;48.130;13.788;2022-07-18T17:40:19;1.77;;;1.63;;
15408;SDS011;7803;48.130;13.788;2022-07-18T17:43:24;1.88;;;1.60;;
15408;SDS011;7803;48.130;13.788;2022-07-18T17:46:26;1.77;;;1.50;;
15408;SDS011;7803;48.130;13.788;2022-07-18T17:49:32;2.85;;;1.85;;
15408;SDS011;7803;48.130;13.788;2022-07-18T17:52:35;1.65;;;1.55;;
15408;SDS011;7803;48.130;13.788;2022-07-18T17:55:37;1.58;;;1.48;;
15408;SDS011;7803;48.130;13.788;2022-07-18T17:58:40;2.00;;;1.80;;
15408;SDS011;7803;48.130;13.788;2022-07-18T18:01:42;1.60;;;1.45;;
15408;SDS011;7803;48.130;13.788;2022-07-18T18:04:45;3.00;;;1.65;;
15408;SDS011;7803;48.130;13.788;2022-07-18T18:07:47;2.03;;;1.42;;
15408;SDS011;7803;48.130;13.788;2022-07-18T18:10:49;1.80;;;1.50;;
15408;SDS011;7803;48.130;13.788;2022-07-18T18:13:52;1.73;;;1.63;;
15408;SDS011;7803;48.130;13.788;2022-07-18T18:16:54;1.67;;;1.58;;
15408;SDS011;7803;48.130;13.788;2022-07-18T18:19:58;1.73;;;1.58;;
15408;SDS011;7803;48.130;13.788;2022-07-18T18:23:00;1.75;;;1.60;;
15408;SDS011;7803;48.130;13.788;2022-07-18T18:26:02;2.15;;;1.70;;
15408;SDS011;7803;48.130;13.788;2022-07-18T18:29:06;2.67;;;1.80;;
15408;SDS011;7803;48.130;13.788;2022-07-18T18:32:08;3.28;;;1.83;;
15408;SDS011;7803;48.130;13.788;2022-07-18T18:35:10;1.88;;;1.73;;
15408;SDS011;7803;48.130;13.788;2022-07-18T18:38:13;1.90;;;1.70;;
15408;SDS011;7803;48.130;13.788;2022-07-18T18:41:15;2.05;;;1.67;;
15408;SDS011;7803;48.130;13.788;2022-07-18T18:44:18;1.80;;;1.70;;
15408;SDS011;7803;48.130;13.788;2022-07-18T18:47:20;1.85;;;1.70;;
15408;SDS011;7803;48.130;13.788;2022-07-18T18:50:22;2.17;;;1.80;;